sensor_id;sensor_type;location;lat;lon;timestamp;pressure;altitude;pressure_sealevel;temperature
34807;BMP280;18310;55.586;12.286;2023-08-21T00:02:03;102168.66;;;22.92
34807;BMP280;18310;55.586;12.286;2023-08-21T00:05:07;102165.53;;;22.90
34807;BMP280;18310;55.586;12.286;2023-08-21T00:08:12;102159.19;;;22.85
34807;BMP280;18310;55.586;12.286;2023-08-21T00:11:15;102162.78;;;22.82
34807;BMP280;18310;55.586;12.286;2023-08-21T00:14:18;102170.31;;;22.78
34807;BMP280;18310;55.586;12.286;2023-08-21T00:17:21;102162.44;;;22.73
34807;BMP280;18310;55.586;12.286;2023-08-21T00:20:25;102159.28;;;22.71
34807;BMP280;18310;55.586;12.286;2023-08-21T00:23:30;102159.66;;;22.70
34807;BMP280;18310;55.586;12.286;2023-08-21T00:26:33;102165.25;;;22.66
34807;BMP280;18310;55.586;12.286;2023-08-21T00:29:36;102166.06;;;22.56
34807;BMP280;18310;55.586;12.286;2023-08-21T00:32:39;102166.88;;;22.57
34807;BMP280;18310;55.586;12.286;2023-08-21T00:35:42;102169.25;;;22.51
34807;BMP280;18310;55.586;12.286;2023-08-21T00:38:46;102170.44;;;22.50
34807;BMP280;18310;55.586;12.286;2023-08-21T00:41:50;102163.34;;;22.46
34807;BMP280;18310;55.586;12.286;2023-08-21T00:44:53;102164.94;;;22.40
34807;BMP280;18310;55.586;12.286;2023-08-21T00:47:56;102153.06;;;22.32
34807;BMP280;18310;55.586;12.286;2023-08-21T00:50:59;102159.41;;;22.29
34807;BMP280;18310;55.586;12.286;2023-08-21T00:54:04;102161.78;;;22.27
34807;BMP280;18310;55.586;12.286;2023-08-21T00:57:07;102167.75;;;22.22
34807;BMP280;18310;55.586;12.286;2023-08-21T01:00:11;102161.44;;;22.18
34807;BMP280;18310;55.586;12.286;2023-08-21T01:03:14;102166.59;;;22.05
34807;BMP280;18310;55.586;12.286;2023-08-21T01:06:18;102170.16;;;22.09
34807;BMP280;18310;55.586;12.286;2023-08-21T01:09:24;102171.38;;;21.94
34807;BMP280;18310;55.586;12.286;2023-08-21T01:12:29;102171.75;;;21.86
34807;BMP280;18310;55.586;12.286;2023-08-21T01:15:35;102176.13;;;21.80
34807;BMP280;18310;55.586;12.286;2023-08-21T01:18:39;102172.53;;;21.76
34807;BMP280;18310;55.586;12.286;2023-08-21T01:21:42;102178.50;;;21.70
34807;BMP280;18310;55.586;12.286;2023-08-21T01:24:46;102178.47;;;21.67
34807;BMP280;18310;55.586;12.286;2023-08-21T01:27:49;102173.31;;;21.65
34807;BMP280;18310;55.586;12.286;2023-08-21T01:30:54;102178.06;;;21.65
34807;BMP280;18310;55.586;12.286;2023-08-21T01:34:02;102184.03;;;21.63
34807;BMP280;18310;55.586;12.286;2023-08-21T01:37:06;102188.78;;;21.63
34807;BMP280;18310;55.586;12.286;2023-08-21T01:40:11;102186.03;;;21.63
34807;BMP280;18310;55.586;12.286;2023-08-21T01:43:14;102176.09;;;21.62
34807;BMP280;18310;55.586;12.286;2023-08-21T01:46:17;102185.22;;;21.66
34807;BMP280;18310;55.586;12.286;2023-08-21T01:49:20;102178.06;;;21.65
34807;BMP280;18310;55.586;12.286;2023-08-21T01:52:23;102182.06;;;21.67
34807;BMP280;18310;55.586;12.286;2023-08-21T01:55:27;102186.41;;;21.68
34807;BMP280;18310;55.586;12.286;2023-08-21T01:58:30;102183.66;;;21.72
34807;BMP280;18310;55.586;12.286;2023-08-21T02:01:33;102184.84;;;21.75
34807;BMP280;18310;55.586;12.286;2023-08-21T02:04:36;102198.69;;;21.78
34807;BMP280;18310;55.586;12.286;2023-08-21T02:07:39;102196.72;;;21.79
34807;BMP280;18310;55.586;12.286;2023-08-21T02:10:52;102197.88;;;21.81
34807;BMP280;18310;55.586;12.286;2023-08-21T02:13:55;102198.69;;;21.82
34807;BMP280;18310;55.586;12.286;2023-08-21T02:16:58;102190.38;;;21.82
34807;BMP280;18310;55.586;12.286;2023-08-21T02:20:01;102196.72;;;21.82
34807;BMP280;18310;55.586;12.286;2023-08-21T02:23:04;102192.75;;;21.83
34807;BMP280;18310;55.586;12.286;2023-08-21T02:26:09;102196.72;;;21.86
34807;BMP280;18310;55.586;12.286;2023-08-21T02:29:12;102191.19;;;21.86
34807;BMP280;18310;55.586;12.286;2023-08-21T02:32:15;102192.34;;;21.88
34807;BMP280;18310;55.586;12.286;2023-08-21T02:35:18;102186.81;;;21.92
34807;BMP280;18310;55.586;12.286;2023-08-21T02:38:21;102180.06;;;21.93
34807;BMP280;18310;55.586;12.286;2023-08-21T02:41:25;102188.81;;;21.95
34807;BMP280;18310;55.586;12.286;2023-08-21T02:44:28;102184.06;;;21.95
34807;BMP280;18310;55.586;12.286;2023-08-21T02:47:31;102192.75;;;21.97
34807;BMP280;18310;55.586;12.286;2023-08-21T02:50:34;102188.00;;;21.98
34807;BMP280;18310;55.586;12.286;2023-08-21T02:53:37;102183.25;;;21.95
34807;BMP280;18310;55.586;12.286;2023-08-21T02:56:41;102182.84;;;21.93
34807;BMP280;18310;55.586;12.286;2023-08-21T02:59:44;102181.25;;;21.88
34807;BMP280;18310;55.586;12.286;2023-08-21T03:02:47;102190.75;;;21.87
34807;BMP280;18310;55.586;12.286;2023-08-21T03:05:50;102188.81;;;21.84
34807;BMP280;18310;55.586;12.286;2023-08-21T03:08:53;102179.66;;;21.77
34807;BMP280;18310;55.586;12.286;2023-08-21T03:11:58;102188.38;;;21.79
34807;BMP280;18310;55.586;12.286;2023-08-21T03:15:00;102189.19;;;21.76
34807;BMP280;18310;55.586;12.286;2023-08-21T03:18:03;102185.63;;;21.71
34807;BMP280;18310;55.586;12.286;2023-08-21T03:21:07;102185.22;;;21.69
34807;BMP280;18310;55.586;12.286;2023-08-21T03:24:10;102176.09;;;21.69
34807;BMP280;18310;55.586;12.286;2023-08-21T03:27:15;102175.72;;;21.67
34807;BMP280;18310;55.586;12.286;2023-08-21T03:30:40;102177.28;;;21.75
34807;BMP280;18310;55.586;12.286;2023-08-21T03:33:43;102151.97;;;21.59
34807;BMP280;18310;55.586;12.286;2023-08-21T03:36:46;102176.13;;;21.76
34807;BMP280;18310;55.586;12.286;2023-08-21T03:39:49;102175.31;;;21.76
34807;BMP280;18310;55.586;12.286;2023-08-21T03:42:52;102174.94;;;21.73
34807;BMP280;18310;55.586;12.286;2023-08-21T03:45:57;102174.53;;;21.71
34807;BMP280;18310;55.586;12.286;2023-08-21T03:49:00;102173.31;;;21.69
34807;BMP280;18310;55.586;12.286;2023-08-21T03:52:03;102172.56;;;21.68
34807;BMP280;18310;55.586;12.286;2023-08-21T03:55:07;102165.44;;;21.67
34807;BMP280;18310;55.586;12.286;2023-08-21T03:58:10;102180.06;;;21.68
34807;BMP280;18310;55.586;12.286;2023-08-21T04:01:15;102174.91;;;21.70
34807;BMP280;18310;55.586;12.286;2023-08-21T04:04:18;102172.16;;;21.73
34807;BMP280;18310;55.586;12.286;2023-08-21T04:07:21;102165.41;;;21.78
34807;BMP280;18310;55.586;12.286;2023-08-21T04:10:25;102164.63;;;21.81
34807;BMP280;18310;55.586;12.286;2023-08-21T04:13:28;102171.38;;;21.84
34807;BMP280;18310;55.586;12.286;2023-08-21T04:16:32;102163.84;;;21.84
34807;BMP280;18310;55.586;12.286;2023-08-21T04:19:35;102166.63;;;21.84
34807;BMP280;18310;55.586;12.286;2023-08-21T04:22:38;102169.41;;;21.84
34807;BMP280;18310;55.586;12.286;2023-08-21T04:25:42;102169.78;;;21.83
34807;BMP280;18310;55.586;12.286;2023-08-21T04:28:45;102169.78;;;21.83
34807;BMP280;18310;55.586;12.286;2023-08-21T04:31:50;102175.72;;;21.81
34807;BMP280;18310;55.586;12.286;2023-08-21T04:34:53;102186.41;;;21.79
34807;BMP280;18310;55.586;12.286;2023-08-21T04:37:56;102184.81;;;21.78
34807;BMP280;18310;55.586;12.286;2023-08-21T04:41:06;102192.75;;;21.80
34807;BMP280;18310;55.586;12.286;2023-08-21T04:44:09;102196.34;;;21.84
34807;BMP280;18310;55.586;12.286;2023-08-21T04:47:21;102187.19;;;21.87
34807;BMP280;18310;55.586;12.286;2023-08-21T04:50:25;102186.41;;;21.93
34807;BMP280;18310;55.586;12.286;2023-08-21T04:53:29;102191.97;;;21.97
34807;BMP280;18310;55.586;12.286;2023-08-21T04:56:32;102207.41;;;22.01
34807;BMP280;18310;55.586;12.286;2023-08-21T04:59:35;102201.09;;;22.08
34807;BMP280;18310;55.586;12.286;2023-08-21T05:02:40;102203.03;;;22.32
34807;BMP280;18310;55.586;12.286;2023-08-21T05:05:52;102204.50;;;22.68
34807;BMP280;18310;55.586;12.286;2023-08-21T05:08:55;102199.53;;;23.11
34807;BMP280;18310;55.586;12.286;2023-08-21T05:11:58;102194.81;;;23.63
34807;BMP280;18310;55.586;12.286;2023-08-21T05:15:01;102188.72;;;24.20
34807;BMP280;18310;55.586;12.286;2023-08-21T05:18:06;102196.34;;;24.80
34807;BMP280;18310;55.586;12.286;2023-08-21T05:21:09;102193.81;;;25.42
34807;BMP280;18310;55.586;12.286;2023-08-21T05:24:12;102196.75;;;26.01
34807;BMP280;18310;55.586;12.286;2023-08-21T05:27:15;102199.66;;;26.57
34807;BMP280;18310;55.586;12.286;2023-08-21T05:30:19;102195.50;;;26.81
34807;BMP280;18310;55.586;12.286;2023-08-21T05:33:23;102210.69;;;27.32
34807;BMP280;18310;55.586;12.286;2023-08-21T05:36:26;102210.81;;;27.73
34807;BMP280;18310;55.586;12.286;2023-08-21T05:39:30;102223.78;;;27.96
34807;BMP280;18310;55.586;12.286;2023-08-21T05:42:33;102208.31;;;27.91
34807;BMP280;18310;55.586;12.286;2023-08-21T05:45:36;102206.19;;;27.82
34807;BMP280;18310;55.586;12.286;2023-08-21T05:48:40;102207.81;;;28.09
34807;BMP280;18310;55.586;12.286;2023-08-21T05:51:44;102211.56;;;28.31
34807;BMP280;18310;55.586;12.286;2023-08-21T05:54:47;102214.44;;;28.69
34807;BMP280;18310;55.586;12.286;2023-08-21T05:57:50;102212.28;;;29.10
34807;BMP280;18310;55.586;12.286;2023-08-21T06:00:53;102220.84;;;29.54
34807;BMP280;18310;55.586;12.286;2023-08-21T06:03:57;102214.25;;;29.91
34807;BMP280;18310;55.586;12.286;2023-08-21T06:07:02;102217.47;;;30.24
34807;BMP280;18310;55.586;12.286;2023-08-21T06:10:06;102221.41;;;30.57
34807;BMP280;18310;55.586;12.286;2023-08-21T06:13:10;102223.38;;;30.87
34807;BMP280;18310;55.586;12.286;2023-08-21T06:16:13;102219.84;;;31.14
34807;BMP280;18310;55.586;12.286;2023-08-21T06:19:19;102215.00;;;31.41
34807;BMP280;18310;55.586;12.286;2023-08-21T06:22:22;102221.44;;;31.69
34807;BMP280;18310;55.586;12.286;2023-08-21T06:25:25;102224.66;;;32.04
34807;BMP280;18310;55.586;12.286;2023-08-21T06:28:28;102231.25;;;32.01
34807;BMP280;18310;55.586;12.286;2023-08-21T06:31:31;102224.56;;;31.62
34807;BMP280;18310;55.586;12.286;2023-08-21T06:34:37;102227.03;;;31.15
34807;BMP280;18310;55.586;12.286;2023-08-21T06:37:40;102224.06;;;30.60
34807;BMP280;18310;55.586;12.286;2023-08-21T06:40:44;102228.13;;;30.07
34807;BMP280;18310;55.586;12.286;2023-08-21T06:43:47;102226.59;;;29.72
34807;BMP280;18310;55.586;12.286;2023-08-21T06:46:51;102220.84;;;29.54
34807;BMP280;18310;55.586;12.286;2023-08-21T06:49:55;102217.63;;;29.30
34807;BMP280;18310;55.586;12.286;2023-08-21T06:53:58;102219.34;;;29.62
34807;BMP280;18310;55.586;12.286;2023-08-21T06:57:01;102218.72;;;30.01
34807;BMP280;18310;55.586;12.286;2023-08-21T07:00:06;102223.22;;;30.51
34807;BMP280;18310;55.586;12.286;2023-08-21T07:03:09;102224.03;;;31.00
34807;BMP280;18310;55.586;12.286;2023-08-21T07:06:12;102230.06;;;31.57
34807;BMP280;18310;55.586;12.286;2023-08-21T07:09:17;102229.69;;;32.00
34807;BMP280;18310;55.586;12.286;2023-08-21T07:12:21;102225.38;;;32.22
34807;BMP280;18310;55.586;12.286;2023-08-21T07:15:24;102232.31;;;32.54
34807;BMP280;18310;55.586;12.286;2023-08-21T07:18:27;102236.75;;;32.79
34807;BMP280;18310;55.586;12.286;2023-08-21T07:21:31;102228.63;;;32.95
34807;BMP280;18310;55.586;12.286;2023-08-21T07:24:38;102216.56;;;32.95
34807;BMP280;18310;55.586;12.286;2023-08-21T07:27:41;102231.28;;;32.99
34807;BMP280;18310;55.586;12.286;2023-08-21T07:30:44;102235.00;;;32.49
34807;BMP280;18310;55.586;12.286;2023-08-21T07:33:47;102235.19;;;31.94
34807;BMP280;18310;55.586;12.286;2023-08-21T07:36:50;102233.66;;;31.48
34807;BMP280;18310;55.586;12.286;2023-08-21T07:39:56;102239.19;;;31.03
34807;BMP280;18310;55.586;12.286;2023-08-21T07:43:20;102245.28;;;30.61
34807;BMP280;18310;55.586;12.286;2023-08-21T07:46:23;102236.06;;;30.30
34807;BMP280;18310;55.586;12.286;2023-08-21T07:49:26;102247.00;;;30.07
34807;BMP280;18310;55.586;12.286;2023-08-21T07:52:29;102245.63;;;29.89
34807;BMP280;18310;55.586;12.286;2023-08-21T07:55:33;102247.38;;;29.74
34807;BMP280;18310;55.586;12.286;2023-08-21T07:58:37;102244.38;;;29.56
34807;BMP280;18310;55.586;12.286;2023-08-21T08:01:40;102242.56;;;29.41
34807;BMP280;18310;55.586;12.286;2023-08-21T08:04:43;102237.16;;;29.34
34807;BMP280;18310;55.586;12.286;2023-08-21T08:07:46;102249.88;;;29.25
34807;BMP280;18310;55.586;12.286;2023-08-21T08:10:49;102249.16;;;29.21
34807;BMP280;18310;55.586;12.286;2023-08-21T08:13:55;102251.97;;;29.21
34807;BMP280;18310;55.586;12.286;2023-08-21T08:16:59;102241.44;;;29.25
34807;BMP280;18310;55.586;12.286;2023-08-21T08:20:02;102248.28;;;29.24
34807;BMP280;18310;55.586;12.286;2023-08-21T08:23:08;102235.38;;;29.27
34807;BMP280;18310;55.586;12.286;2023-08-21T08:26:11;102243.91;;;29.23
34807;BMP280;18310;55.586;12.286;2023-08-21T08:29:15;102241.88;;;29.24
34807;BMP280;18310;55.586;12.286;2023-08-21T08:32:20;102251.44;;;29.27
34807;BMP280;18310;55.586;12.286;2023-08-21T08:35:23;102242.34;;;29.22
34807;BMP280;18310;55.586;12.286;2023-08-21T08:38:26;102249.53;;;29.23
34807;BMP280;18310;55.586;12.286;2023-08-21T08:41:35;102246.06;;;29.19
34807;BMP280;18310;55.586;12.286;2023-08-21T08:44:42;102239.19;;;29.20
34807;BMP280;18310;55.586;12.286;2023-08-21T08:47:46;102247.94;;;29.22
34807;BMP280;18310;55.586;12.286;2023-08-21T08:50:50;102226.19;;;29.14
34807;BMP280;18310;55.586;12.286;2023-08-21T08:53:53;102237.63;;;29.32
34807;BMP280;18310;55.586;12.286;2023-08-21T08:56:57;102238.16;;;29.40
34807;BMP280;18310;55.586;12.286;2023-08-21T09:00:01;102238.94;;;29.40
34807;BMP280;18310;55.586;12.286;2023-08-21T09:03:06;102238.81;;;29.44
34807;BMP280;18310;55.586;12.286;2023-08-21T09:06:10;102234.00;;;29.44
34807;BMP280;18310;55.586;12.286;2023-08-21T09:09:13;102234.75;;;29.45
34807;BMP280;18310;55.586;12.286;2023-08-21T09:12:17;102242.63;;;29.50
34807;BMP280;18310;55.586;12.286;2023-08-21T09:15:21;102238.50;;;29.42
34807;BMP280;18310;55.586;12.286;2023-08-21T09:18:46;102251.94;;;29.47
34807;BMP280;18310;55.586;12.286;2023-08-21T09:21:49;102245.13;;;29.35
34807;BMP280;18310;55.586;12.286;2023-08-21T09:25:03;102238.41;;;29.33
34807;BMP280;18310;55.586;12.286;2023-08-21T09:28:08;102246.50;;;29.31
34807;BMP280;18310;55.586;12.286;2023-08-21T09:31:13;102245.56;;;29.34
34807;BMP280;18310;55.586;12.286;2023-08-21T09:34:16;102241.75;;;29.40
34807;BMP280;18310;55.586;12.286;2023-08-21T09:37:19;102245.69;;;29.43
34807;BMP280;18310;55.586;12.286;2023-08-21T09:40:23;102246.88;;;29.54
34807;BMP280;18310;55.586;12.286;2023-08-21T09:43:26;102241.78;;;29.62
34807;BMP280;18310;55.586;12.286;2023-08-21T09:46:31;102242.66;;;29.71
34807;BMP280;18310;55.586;12.286;2023-08-21T09:49:34;102232.44;;;29.77
34807;BMP280;18310;55.586;12.286;2023-08-21T09:52:38;102239.16;;;29.80
34807;BMP280;18310;55.586;12.286;2023-08-21T09:55:42;102239.47;;;29.82
34807;BMP280;18310;55.586;12.286;2023-08-21T09:58:47;102235.50;;;29.92
34807;BMP280;18310;55.586;12.286;2023-08-21T10:01:52;102232.66;;;30.05
34807;BMP280;18310;55.586;12.286;2023-08-21T10:04:56;102235.00;;;30.06
34807;BMP280;18310;55.586;12.286;2023-08-21T10:08:00;102236.72;;;29.91
34807;BMP280;18310;55.586;12.286;2023-08-21T10:11:08;102233.88;;;30.04
34807;BMP280;18310;55.586;12.286;2023-08-21T10:14:12;102239.31;;;29.98
34807;BMP280;18310;55.586;12.286;2023-08-21T10:17:16;102240.72;;;29.81
34807;BMP280;18310;55.586;12.286;2023-08-21T10:20:21;102238.25;;;29.83
34807;BMP280;18310;55.586;12.286;2023-08-21T10:23:27;102239.81;;;29.84
34807;BMP280;18310;55.586;12.286;2023-08-21T10:26:31;102235.66;;;29.88
34807;BMP280;18310;55.586;12.286;2023-08-21T10:29:35;102227.34;;;29.85
34807;BMP280;18310;55.586;12.286;2023-08-21T10:32:45;102226.56;;;29.84
34807;BMP280;18310;55.586;12.286;2023-08-21T10:35:49;102232.84;;;29.88
34807;BMP280;18310;55.586;12.286;2023-08-21T10:39:01;102229.25;;;29.88
34807;BMP280;18310;55.586;12.286;2023-08-21T10:42:06;102238.16;;;29.74
34807;BMP280;18310;55.586;12.286;2023-08-21T10:45:10;102236.72;;;29.69
34807;BMP280;18310;55.586;12.286;2023-08-21T10:48:15;102247.72;;;29.76
34807;BMP280;18310;55.586;12.286;2023-08-21T10:51:18;102249.19;;;29.68
34807;BMP280;18310;55.586;12.286;2023-08-21T10:54:22;102246.84;;;29.67
34807;BMP280;18310;55.586;12.286;2023-08-21T10:57:26;102248.09;;;29.66
34807;BMP280;18310;55.586;12.286;2023-08-21T11:00:30;102245.47;;;29.71
34807;BMP280;18310;55.586;12.286;2023-08-21T11:03:38;102243.78;;;29.74
34807;BMP280;18310;55.586;12.286;2023-08-21T11:06:41;102248.97;;;29.75
34807;BMP280;18310;55.586;12.286;2023-08-21T11:09:44;102253.91;;;29.71
34807;BMP280;18310;55.586;12.286;2023-08-21T11:12:49;102253.38;;;29.64
34807;BMP280;18310;55.586;12.286;2023-08-21T11:15:59;102251.38;;;29.64
34807;BMP280;18310;55.586;12.286;2023-08-21T11:19:30;102243.78;;;29.74
34807;BMP280;18310;55.586;12.286;2023-08-21T11:22:33;102251.84;;;29.84
34807;BMP280;18310;55.586;12.286;2023-08-21T11:25:38;102247.28;;;30.00
34807;BMP280;18310;55.586;12.286;2023-08-21T11:28:42;102255.50;;;30.16
34807;BMP280;18310;55.586;12.286;2023-08-21T11:31:45;102251.97;;;30.24
34807;BMP280;18310;55.586;12.286;2023-08-21T11:34:52;102242.03;;;30.32
34807;BMP280;18310;55.586;12.286;2023-08-21T11:37:56;102253.66;;;30.43
34807;BMP280;18310;55.586;12.286;2023-08-21T11:41:00;102251.75;;;30.40
34807;BMP280;18310;55.586;12.286;2023-08-21T11:44:04;102252.19;;;30.39
34807;BMP280;18310;55.586;12.286;2023-08-21T11:47:07;102257.19;;;30.35
34807;BMP280;18310;55.586;12.286;2023-08-21T11:50:14;102257.63;;;30.33
34807;BMP280;18310;55.586;12.286;2023-08-21T11:53:31;102258.56;;;30.30
34807;BMP280;18310;55.586;12.286;2023-08-21T11:56:35;102263.91;;;30.37
34807;BMP280;18310;55.586;12.286;2023-08-21T11:59:38;102252.03;;;30.33
34807;BMP280;18310;55.586;12.286;2023-08-21T12:02:42;102254.25;;;30.47
34807;BMP280;18310;55.586;12.286;2023-08-21T12:05:47;102258.22;;;30.59
34807;BMP280;18310;55.586;12.286;2023-08-21T12:08:51;102258.31;;;30.68
34807;BMP280;18310;55.586;12.286;2023-08-21T12:11:54;102267.56;;;30.78
34807;BMP280;18310;55.586;12.286;2023-08-21T12:14:57;102256.31;;;30.87
34807;BMP280;18310;55.586;12.286;2023-08-21T12:18:00;102269.94;;;30.88
34807;BMP280;18310;55.586;12.286;2023-08-21T12:21:08;102267.78;;;30.92
34807;BMP280;18310;55.586;12.286;2023-08-21T12:24:11;102266.97;;;30.92
34807;BMP280;18310;55.586;12.286;2023-08-21T12:27:14;102268.50;;;30.84
34807;BMP280;18310;55.586;12.286;2023-08-21T12:30:18;102266.47;;;30.84
34807;BMP280;18310;55.586;12.286;2023-08-21T12:33:21;102273.69;;;30.85
34807;BMP280;18310;55.586;12.286;2023-08-21T12:36:27;102265.09;;;30.89
34807;BMP280;18310;55.586;12.286;2023-08-21T12:39:30;102264.63;;;30.90
34807;BMP280;18310;55.586;12.286;2023-08-21T12:42:33;102265.13;;;30.98
34807;BMP280;18310;55.586;12.286;2023-08-21T12:45:38;102269.66;;;31.04
34807;BMP280;18310;55.586;12.286;2023-08-21T12:48:41;102271.41;;;31.02
34807;BMP280;18310;55.586;12.286;2023-08-21T12:51:46;102268.28;;;31.09
34807;BMP280;18310;55.586;12.286;2023-08-21T12:54:49;102263.13;;;31.07
34807;BMP280;18310;55.586;12.286;2023-08-21T12:57:52;102260.50;;;31.13
34807;BMP280;18310;55.586;12.286;2023-08-21T13:00:55;102260.66;;;31.18
34807;BMP280;18310;55.586;12.286;2023-08-21T13:03:58;102256.56;;;31.19
34807;BMP280;18310;55.586;12.286;2023-08-21T13:07:03;102262.69;;;31.27
34807;BMP280;18310;55.586;12.286;2023-08-21T13:10:07;102264.25;;;31.28
34807;BMP280;18310;55.586;12.286;2023-08-21T13:13:11;102268.81;;;31.25
34807;BMP280;18310;55.586;12.286;2023-08-21T13:16:14;102265.50;;;31.27
34807;BMP280;18310;55.586;12.286;2023-08-21T13:19:18;102261.59;;;31.24
34807;BMP280;18310;55.586;12.286;2023-08-21T13:22:22;102271.75;;;31.13
34807;BMP280;18310;55.586;12.286;2023-08-21T13:25:48;102249.34;;;31.00
34807;BMP280;18310;55.586;12.286;2023-08-21T13:28:52;102251.38;;;30.91
34807;BMP280;18310;55.586;12.286;2023-08-21T13:31:55;102257.09;;;30.78
34807;BMP280;18310;55.586;12.286;2023-08-21T13:34:58;102255.94;;;30.66
34807;BMP280;18310;55.586;12.286;2023-08-21T13:38:01;102257.16;;;30.56
34807;BMP280;18310;55.586;12.286;2023-08-21T13:41:11;102263.19;;;30.46
34807;BMP280;18310;55.586;12.286;2023-08-21T13:44:14;102250.63;;;30.38
34807;BMP280;18310;55.586;12.286;2023-08-21T13:47:21;102256.88;;;30.33
34807;BMP280;18310;55.586;12.286;2023-08-21T13:50:24;102262.09;;;30.22
34807;BMP280;18310;55.586;12.286;2023-08-21T13:53:27;102261.38;;;30.09
34807;BMP280;18310;55.586;12.286;2023-08-21T13:56:32;102251.78;;;29.97
34807;BMP280;18310;55.586;12.286;2023-08-21T13:59:35;102252.34;;;29.92
34807;BMP280;18310;55.586;12.286;2023-08-21T14:02:38;102249.38;;;29.86
34807;BMP280;18310;55.586;12.286;2023-08-21T14:05:43;102260.13;;;29.88
34807;BMP280;18310;55.586;12.286;2023-08-21T14:08:46;102249.47;;;29.83
34807;BMP280;18310;55.586;12.286;2023-08-21T14:12:15;102248.50;;;29.77
34807;BMP280;18310;55.586;12.286;2023-08-21T14:15:19;102252.66;;;29.72
34807;BMP280;18310;55.586;12.286;2023-08-21T14:18:22;102247.16;;;29.69
34807;BMP280;18310;55.586;12.286;2023-08-21T14:21:25;102249.31;;;29.65
34807;BMP280;18310;55.586;12.286;2023-08-21T14:24:29;102247.88;;;29.60
34807;BMP280;18310;55.586;12.286;2023-08-21T14:27:34;102248.66;;;29.61
34807;BMP280;18310;55.586;12.286;2023-08-21T14:30:37;102248.19;;;29.62
34807;BMP280;18310;55.586;12.286;2023-08-21T14:33:41;102242.72;;;29.59
34807;BMP280;18310;55.586;12.286;2023-08-21T14:36:44;102251.56;;;29.57
34807;BMP280;18310;55.586;12.286;2023-08-21T14:39:47;102244.88;;;29.55
34807;BMP280;18310;55.586;12.286;2023-08-21T14:42:52;102245.09;;;29.48
34807;BMP280;18310;55.586;12.286;2023-08-21T14:45:55;102240.38;;;29.45
34807;BMP280;18310;55.586;12.286;2023-08-21T14:48:59;102238.81;;;29.44
34807;BMP280;18310;55.586;12.286;2023-08-21T14:52:03;102226.28;;;29.36
34807;BMP280;18310;55.586;12.286;2023-08-21T14:55:07;102236.47;;;29.42
34807;BMP280;18310;55.586;12.286;2023-08-21T14:58:13;102233.44;;;29.37
34807;BMP280;18310;55.586;12.286;2023-08-21T15:01:17;102232.66;;;29.36
34807;BMP280;18310;55.586;12.286;2023-08-21T15:04:20;102229.97;;;29.33
34807;BMP280;18310;55.586;12.286;2023-08-21T15:07:24;102227.94;;;29.33
34807;BMP280;18310;55.586;12.286;2023-08-21T15:10:27;102229.09;;;29.36
34807;BMP280;18310;55.586;12.286;2023-08-21T15:13:32;102227.50;;;29.35
34807;BMP280;18310;55.586;12.286;2023-08-21T15:16:36;102225.03;;;29.37
34807;BMP280;18310;55.586;12.286;2023-08-21T15:19:39;102221.00;;;29.38
34807;BMP280;18310;55.586;12.286;2023-08-21T15:22:42;102214.03;;;29.42
34807;BMP280;18310;55.586;12.286;2023-08-21T15:25:46;102218.53;;;29.40
34807;BMP280;18310;55.586;12.286;2023-08-21T15:28:51;102206.41;;;29.43
34807;BMP280;18310;55.586;12.286;2023-08-21T15:31:54;102220.44;;;29.43
34807;BMP280;18310;55.586;12.286;2023-08-21T15:34:58;102208.47;;;29.30
34807;BMP280;18310;55.586;12.286;2023-08-21T15:38:05;102208.97;;;29.37
34807;BMP280;18310;55.586;12.286;2023-08-21T15:41:11;102207.06;;;29.34
34807;BMP280;18310;55.586;12.286;2023-08-21T15:44:16;102201.28;;;29.29
34807;BMP280;18310;55.586;12.286;2023-08-21T15:47:19;102202.50;;;29.27
34807;BMP280;18310;55.586;12.286;2023-08-21T15:50:42;102208.22;;;29.24
34807;BMP280;18310;55.586;12.286;2023-08-21T15:53:45;102201.84;;;29.23
34807;BMP280;18310;55.586;12.286;2023-08-21T15:56:49;102201.38;;;29.25
34807;BMP280;18310;55.586;12.286;2023-08-21T15:59:53;102201.38;;;29.25
34807;BMP280;18310;55.586;12.286;2023-08-21T16:02:57;102199.94;;;29.20
34807;BMP280;18310;55.586;12.286;2023-08-21T16:06:02;102199.16;;;29.20
34807;BMP280;18310;55.586;12.286;2023-08-21T16:09:07;102199.59;;;29.18
34807;BMP280;18310;55.586;12.286;2023-08-21T16:12:11;102206.09;;;29.15
34807;BMP280;18310;55.586;12.286;2023-08-21T16:15:18;102189.28;;;29.15
34807;BMP280;18310;55.586;12.286;2023-08-21T16:18:21;102194.13;;;29.15
34807;BMP280;18310;55.586;12.286;2023-08-21T16:21:25;102187.16;;;29.07
34807;BMP280;18310;55.586;12.286;2023-08-21T16:24:30;102186.50;;;29.03
34807;BMP280;18310;55.586;12.286;2023-08-21T16:27:33;102186.94;;;29.01
34807;BMP280;18310;55.586;12.286;2023-08-21T16:30:38;102183.81;;;28.99
34807;BMP280;18310;55.586;12.286;2023-08-21T16:33:42;102184.03;;;28.92
34807;BMP280;18310;55.586;12.286;2023-08-21T16:36:45;102190.53;;;28.89
34807;BMP280;18310;55.586;12.286;2023-08-21T16:39:48;102186.19;;;28.88
34807;BMP280;18310;55.586;12.286;2023-08-21T16:42:51;102179.00;;;28.87
34807;BMP280;18310;55.586;12.286;2023-08-21T16:45:59;102175.09;;;28.85
34807;BMP280;18310;55.586;12.286;2023-08-21T16:49:04;102175.19;;;28.81
34807;BMP280;18310;55.586;12.286;2023-08-21T16:52:08;102176.97;;;28.75
34807;BMP280;18310;55.586;12.286;2023-08-21T16:55:11;102176.78;;;28.70
34807;BMP280;18310;55.586;12.286;2023-08-21T16:58:14;102173.84;;;28.61
34807;BMP280;18310;55.586;12.286;2023-08-21T17:01:19;102174.31;;;28.59
34807;BMP280;18310;55.586;12.286;2023-08-21T17:04:22;102172.03;;;28.54
34807;BMP280;18310;55.586;12.286;2023-08-21T17:07:26;102176.66;;;28.48
34807;BMP280;18310;55.586;12.286;2023-08-21T17:10:29;102177.91;;;28.47
34807;BMP280;18310;55.586;12.286;2023-08-21T17:13:35;102170.81;;;28.42